Time,TemperatureF,DewpointF,PressureIn,WindDirection,WindDirectionDegrees,WindSpeedMPH,WindSpeedGustMPH,Humidity,HourlyPrecipIn,Conditions,Clouds,dailyrainin,SoftwareType,DateUTC
2013-07-02 00:03:00,69.8,43.0,30.09,North,0,0.0,0.0,38,0.00,,,0.00,,2013-07-01 22:03:00,
2013-07-02 00:08:00,69.4,42.6,30.09,North,0,0.0,0.0,38,0.00,,,0.00,,2013-07-01 22:08:00,
2013-07-02 00:13:00,69.4,43.9,30.09,North,0,0.0,0.0,40,0.00,,,0.00,,2013-07-01 22:13:00,
2013-07-02 00:18:00,69.1,43.7,30.09,North,0,0.0,0.0,40,0.00,,,0.00,,2013-07-01 22:18:00,
2013-07-02 00:28:00,68.7,44.6,30.09,North,0,0.0,0.0,42,0.00,,,0.00,,2013-07-01 22:28:00,
2013-07-02 00:33:00,68.7,43.9,30.09,North,0,0.0,0.0,41,0.00,,,0.00,,2013-07-01 22:33:00,
2013-07-02 00:38:00,68.7,43.9,30.09,North,0,0.0,0.0,41,0.00,,,0.00,,2013-07-01 22:38:00,
2013-07-02 00:43:00,68.5,43.9,30.09,North,0,0.0,0.0,41,0.00,,,0.00,,2013-07-01 22:43:00,
2013-07-02 00:48:00,68.5,43.9,30.09,North,0,0.0,0.0,41,0.00,,,0.00,,2013-07-01 22:48:00,
2013-07-02 00:53:00,68.5,43.9,30.09,East,90,1.3,1.3,41,0.00,,,0.00,,2013-07-01 22:53:00,
2013-07-02 00:58:00,68.9,45.3,30.09,East,90,0.0,0.8,43,0.00,,,0.00,,2013-07-01 22:58:00,
2013-07-02 01:03:00,69.1,45.5,30.09,East,90,0.4,0.0,43,0.00,,,0.00,,2013-07-01 23:03:00,
2013-07-02 01:08:00,69.3,45.7,30.09,East,90,0.4,0.0,43,0.00,,,0.00,,2013-07-01 23:08:00,
2013-07-02 01:13:00,69.1,45.5,30.09,East,90,0.0,0.0,43,0.00,,,0.00,,2013-07-01 23:13:00,
2013-07-02 01:18:00,68.9,44.8,30.09,East,90,0.0,0.0,42,0.00,,,0.00,,2013-07-01 23:18:00,
2013-07-02 01:23:00,68.9,46.0,30.09,East,90,0.0,0.8,44,0.00,,,0.00,,2013-07-01 23:23:00,
2013-07-02 01:28:00,69.1,46.8,30.09,East,90,1.3,3.5,45,0.00,,,0.00,,2013-07-01 23:28:00,
2013-07-02 01:33:00,69.3,46.9,30.09,East,90,0.8,1.3,45,0.00,,,0.00,,2013-07-01 23:33:00,
2013-07-02 01:38:00,68.9,46.6,30.06,SE,135,1.3,3.1,45,0.00,,,0.00,,2013-07-01 23:38:00,
2013-07-02 01:43:00,68.7,45.9,30.06,SE,135,2.6,2.6,44,0.00,,,0.00,,2013-07-01 23:43:00,
2013-07-02 01:48:00,68.5,45.7,30.09,East,90,2.2,3.1,44,0.00,,,0.00,,2013-07-01 23:48:00,
2013-07-02 01:53:00,68.4,46.0,30.09,East,90,1.3,1.7,45,0.00,,,0.00,,2013-07-01 23:53:00,
2013-07-02 01:58:00,68.2,45.9,30.06,East,90,0.8,0.8,45,0.00,,,0.00,,2013-07-01 23:58:00,
2013-07-02 02:03:00,68.2,45.9,30.06,East,90,0.0,1.3,45,0.00,,,0.00,,2013-07-02 00:03:00,
2013-07-02 02:08:00,67.8,46.8,30.06,East,90,1.3,1.3,47,0.00,,,0.00,,2013-07-02 00:08:00,
2013-07-02 02:13:00,67.8,46.8,30.06,East,90,0.8,1.3,47,0.00,,,0.00,,2013-07-02 00:13:00,
2013-07-02 02:18:00,67.6,44.8,30.06,East,90,1.7,3.1,44,0.00,,,0.00,,2013-07-02 00:18:00,
2013-07-02 02:23:00,67.6,44.8,30.06,NE,45,0.8,1.3,44,0.00,,,0.00,,2013-07-02 00:23:00,
2013-07-02 02:28:00,67.5,44.6,30.06,East,90,1.3,1.3,44,0.00,,,0.00,,2013-07-02 00:28:00,
2013-07-02 02:33:00,67.3,43.9,30.06,ESE,112,1.7,4.0,43,0.00,,,0.00,,2013-07-02 00:33:00,
2013-07-02 02:38:00,67.1,43.2,30.06,East,90,1.3,1.7,42,0.00,,,0.00,,2013-07-02 00:38:00,
2013-07-02 02:43:00,67.1,43.2,30.06,East,90,0.8,1.7,42,0.00,,,0.00,,2013-07-02 00:43:00,
2013-07-02 02:48:00,66.7,44.6,30.06,East,90,1.3,2.2,45,0.00,,,0.00,,2013-07-02 00:48:00,
2013-07-02 02:53:00,66.6,45.0,30.06,South,180,1.3,2.2,46,0.00,,,0.00,,2013-07-02 00:53:00,
2013-07-02 02:58:00,66.6,46.2,30.06,East,90,2.6,4.4,48,0.00,,,0.00,,2013-07-02 00:58:00,
2013-07-02 03:03:00,66.4,47.1,30.06,East,90,1.3,4.4,50,0.00,,,0.00,,2013-07-02 01:03:00,
2013-07-02 03:08:00,66.2,46.9,30.06,North,0,2.2,2.2,50,0.00,,,0.00,,2013-07-02 01:08:00,
2013-07-02 03:13:00,66.2,46.9,30.06,East,90,2.2,3.5,50,0.00,,,0.00,,2013-07-02 01:13:00,
2013-07-02 03:18:00,66.2,46.9,30.06,SE,135,1.3,1.3,50,0.00,,,0.00,,2013-07-02 01:18:00,
2013-07-02 03:23:00,65.8,46.6,30.06,SE,135,2.2,2.2,50,0.00,,,0.00,,2013-07-02 01:23:00,
2013-07-02 03:28:00,65.7,46.9,30.06,NE,45,1.3,1.7,51,0.00,,,0.00,,2013-07-02 01:28:00,
2013-07-02 03:38:00,65.5,47.3,30.06,East,90,1.3,1.3,52,0.00,,,0.00,,2013-07-02 01:38:00,
2013-07-02 03:43:00,65.5,47.3,30.06,SE,135,0.4,0.0,52,0.00,,,0.00,,2013-07-02 01:43:00,
2013-07-02 03:48:00,65.1,46.9,30.06,ENE,67,0.4,1.3,52,0.00,,,0.00,,2013-07-02 01:48:00,
2013-07-02 03:53:00,65.1,46.9,30.06,East,90,1.7,2.2,52,0.00,,,0.00,,2013-07-02 01:53:00,
2013-07-02 03:58:00,64.9,46.8,30.06,NE,45,1.3,2.6,52,0.00,,,0.00,,2013-07-02 01:58:00,
2013-07-02 04:03:00,64.9,46.8,30.06,East,90,1.3,3.1,52,0.00,,,0.00,,2013-07-02 02:03:00,
2013-07-02 04:08:00,64.9,46.8,30.06,East,90,0.0,0.0,52,0.00,,,0.00,,2013-07-02 02:08:00,
2013-07-02 04:13:00,64.8,46.6,30.06,East,90,0.4,0.4,52,0.00,,,0.00,,2013-07-02 02:13:00,
2013-07-02 04:18:00,64.9,46.8,30.06,East,90,2.6,3.1,52,0.00,,,0.00,,2013-07-02 02:18:00,
2013-07-02 04:23:00,64.9,46.8,30.06,East,90,0.4,3.1,52,0.00,,,0.00,,2013-07-02 02:23:00,
2013-07-02 04:28:00,64.8,46.0,30.06,ENE,67,0.0,1.7,51,0.00,,,0.00,,2013-07-02 02:28:00,
2013-07-02 04:33:00,64.6,45.5,30.06,East,90,0.8,1.7,50,0.00,,,0.00,,2013-07-02 02:33:00,
2013-07-02 04:38:00,64.6,45.5,30.06,East,90,0.8,1.7,50,0.00,,,0.00,,2013-07-02 02:38:00,
2013-07-02 04:43:00,64.8,45.5,30.06,East,90,2.2,2.2,50,0.00,,,0.00,,2013-07-02 02:43:00,
2013-07-02 04:48:00,64.8,45.5,30.06,East,90,1.3,2.2,50,0.00,,,0.00,,2013-07-02 02:48:00,
2013-07-02 04:53:00,64.6,45.0,30.06,NE,45,0.4,0.0,49,0.00,,,0.00,,2013-07-02 02:53:00,
2013-07-02 04:58:00,64.6,45.0,30.06,NE,45,0.8,0.8,49,0.00,,,0.00,,2013-07-02 02:58:00,
2013-07-02 05:03:00,64.4,45.9,30.06,NE,45,0.8,0.8,51,0.00,,,0.00,,2013-07-02 03:03:00,
2013-07-02 05:08:00,64.4,45.9,30.06,East,90,1.7,1.7,51,0.00,,,0.00,,2013-07-02 03:08:00,
2013-07-02 05:13:00,64.6,45.0,30.06,NE,45,0.8,2.2,49,0.00,,,0.00,,2013-07-02 03:13:00,
2013-07-02 05:18:00,64.8,45.1,30.06,NE,45,1.7,3.1,49,0.00,,,0.00,,2013-07-02 03:18:00,
2013-07-02 05:23:00,64.6,45.0,30.06,East,90,1.7,2.2,49,0.00,,,0.00,,2013-07-02 03:23:00,
2013-07-02 05:28:00,64.6,44.4,30.06,East,90,1.3,1.7,48,0.00,,,0.00,,2013-07-02 03:28:00,
2013-07-02 05:33:00,64.6,45.0,30.06,ENE,67,0.8,1.7,49,0.00,,,0.00,,2013-07-02 03:33:00,
2013-07-02 05:38:00,64.6,45.0,30.06,North,0,1.7,2.2,49,0.00,,,0.00,,2013-07-02 03:38:00,
2013-07-02 05:43:00,64.6,45.0,30.06,NE,45,1.7,2.2,49,0.00,,,0.00,,2013-07-02 03:43:00,
2013-07-02 05:48:00,64.6,45.0,30.06,ENE,67,0.8,1.3,49,0.00,,,0.00,,2013-07-02 03:48:00,
2013-07-02 05:53:00,64.4,45.3,30.06,East,90,0.0,0.0,50,0.00,,,0.00,,2013-07-02 03:53:00,
2013-07-02 05:58:00,64.2,45.1,30.06,East,90,0.8,1.3,50,0.00,,,0.00,,2013-07-02 03:58:00,
2013-07-02 06:03:00,64.6,45.0,30.06,East,90,1.7,1.7,49,0.00,,,0.00,,2013-07-02 04:03:00,
2013-07-02 06:08:00,64.6,45.0,30.06,NE,45,1.7,2.2,49,0.00,,,0.00,,2013-07-02 04:08:00,
2013-07-02 06:13:00,64.8,45.1,30.06,NE,45,1.3,1.7,49,0.00,,,0.00,,2013-07-02 04:13:00,
2013-07-02 06:18:00,64.8,44.6,30.06,NE,45,0.0,0.0,48,0.00,,,0.00,,2013-07-02 04:18:00,
2013-07-02 06:23:00,65.1,44.2,30.06,NE,45,0.0,0.0,47,0.00,,,0.00,,2013-07-02 04:23:00,
2013-07-02 06:28:00,65.7,44.2,30.06,NE,45,0.0,0.0,46,0.00,,,0.00,,2013-07-02 04:28:00,
2013-07-02 06:33:00,66.2,43.5,30.06,SE,135,0.0,0.0,44,0.00,,,0.00,,2013-07-02 04:33:00,
2013-07-02 06:38:00,66.9,43.0,30.06,SE,135,0.0,0.0,42,0.00,,,0.00,,2013-07-02 04:38:00,
2013-07-02 06:43:00,67.5,42.3,30.06,East,90,0.0,0.0,40,0.00,,,0.00,,2013-07-02 04:43:00,
2013-07-02 06:48:00,68.0,42.1,30.06,East,90,0.0,0.0,39,0.00,,,0.00,,2013-07-02 04:48:00,
2013-07-02 06:53:00,68.5,41.2,30.06,East,90,0.0,0.0,37,0.00,,,0.00,,2013-07-02 04:53:00,
2013-07-02 06:58:00,68.9,41.5,30.06,East,90,0.0,0.0,37,0.00,,,0.00,,2013-07-02 04:58:00,
2013-07-02 07:03:00,70.0,39.4,30.06,East,90,0.0,0.0,33,0.00,,,0.00,,2013-07-02 05:03:00,
2013-07-02 07:08:00,70.7,37.6,30.06,NE,45,1.3,1.3,30,0.00,,,0.00,,2013-07-02 05:08:00,
2013-07-02 07:13:00,70.7,38.5,30.06,ENE,67,2.6,2.6,31,0.00,,,0.00,,2013-07-02 05:13:00,
2013-07-02 07:18:00,71.1,39.6,30.06,NE,45,1.3,2.2,32,0.00,,,0.00,,2013-07-02 05:18:00,
2013-07-02 07:23:00,71.1,38.8,30.06,East,90,2.6,2.6,31,0.00,,,0.00,,2013-07-02 05:23:00,
2013-07-02 07:28:00,71.1,39.6,30.06,East,90,3.5,3.5,32,0.00,,,0.00,,2013-07-02 05:28:00,
2013-07-02 07:33:00,71.6,39.2,30.06,SE,135,1.7,2.2,31,0.00,,,0.00,,2013-07-02 05:33:00,
2013-07-02 07:38:00,71.4,39.9,30.06,East,90,3.1,3.5,32,0.00,,,0.00,,2013-07-02 05:38:00,
2013-07-02 07:43:00,71.8,39.4,30.06,NE,45,1.7,1.7,31,0.00,,,0.00,,2013-07-02 05:43:00,
2013-07-02 07:48:00,72.1,38.8,30.06,ENE,67,2.2,2.2,30,0.00,,,0.00,,2013-07-02 05:48:00,
2013-07-02 07:53:00,72.9,38.7,30.06,South,180,0.4,0.4,29,0.00,,,0.00,,2013-07-02 05:53:00,
2013-07-02 07:58:00,74.1,37.9,30.06,SE,135,1.3,1.3,27,0.00,,,0.00,,2013-07-02 05:58:00,
2013-07-02 08:03:00,74.5,38.1,30.06,SE,135,1.7,1.7,27,0.00,,,0.00,,2013-07-02 06:03:00,
2013-07-02 08:08:00,74.7,36.3,30.06,NE,45,2.6,2.6,25,0.00,,,0.00,,2013-07-02 06:08:00,
2013-07-02 08:13:00,74.5,36.3,30.06,NE,45,4.0,5.8,25,0.00,,,0.00,,2013-07-02 06:13:00,
2013-07-02 08:18:00,74.5,36.3,30.06,East,90,3.1,4.9,25,0.00,,,0.00,,2013-07-02 06:18:00,
2013-07-02 08:23:00,74.8,37.6,30.06,East,90,2.6,4.0,26,0.00,,,0.00,,2013-07-02 06:23:00,
2013-07-02 08:28:00,75.7,36.3,30.06,East,90,1.7,3.1,24,0.00,,,0.00,,2013-07-02 06:28:00,
2013-07-02 08:33:00,76.8,36.1,30.06,East,90,1.3,2.2,23,0.00,,,0.00,,2013-07-02 06:33:00,
2013-07-02 08:38:00,77.4,35.4,30.06,East,90,2.2,4.0,22,0.00,,,0.00,,2013-07-02 06:38:00,
2013-07-02 08:43:00,78.1,34.9,30.06,East,90,3.1,3.1,21,0.00,,,0.00,,2013-07-02 06:43:00,
2013-07-02 08:48:00,78.3,35.1,30.06,NE,45,2.6,2.6,21,0.00,,,0.00,,2013-07-02 06:48:00,
2013-07-02 08:53:00,78.4,36.3,30.06,NE,45,2.2,2.2,22,0.00,,,0.00,,2013-07-02 06:53:00,
2013-07-02 08:58:00,77.9,36.0,30.06,SE,135,1.7,2.2,22,0.00,,,0.00,,2013-07-02 06:58:00,
2013-07-02 09:03:00,79.0,34.3,30.06,East,90,1.3,4.0,20,0.00,,,0.00,,2013-07-02 07:03:00,
2013-07-02 09:08:00,79.0,34.3,30.06,ENE,67,2.6,2.6,20,0.00,,,0.00,,2013-07-02 07:08:00,
2013-07-02 09:13:00,79.3,34.7,30.06,East,90,1.7,1.7,20,0.00,,,0.00,,2013-07-02 07:13:00,
2013-07-02 09:18:00,80.2,35.4,30.06,NE,45,2.2,4.0,20,0.00,,,0.00,,2013-07-02 07:18:00,
2013-07-02 09:23:00,80.6,35.8,30.06,East,90,1.3,4.0,20,0.00,,,0.00,,2013-07-02 07:23:00,
2013-07-02 09:28:00,81.1,36.1,30.06,NW,315,1.7,1.7,20,0.00,,,0.00,,2013-07-02 07:28:00,
2013-07-02 09:33:00,80.8,35.8,30.06,East,90,2.6,4.4,20,0.00,,,0.00,,2013-07-02 07:33:00,
2013-07-02 09:38:00,82.4,37.2,30.06,East,90,1.3,4.4,20,0.00,,,0.00,,2013-07-02 07:38:00,
2013-07-02 09:43:00,82.4,37.2,30.06,ENE,67,3.1,3.1,20,0.00,,,0.00,,2013-07-02 07:43:00,
2013-07-02 09:48:00,82.9,37.6,30.06,SSE,157,0.0,0.0,20,0.00,,,0.00,,2013-07-02 07:48:00,
2013-07-02 09:53:00,84.2,38.7,30.06,East,90,0.8,3.5,20,0.00,,,0.00,,2013-07-02 07:53:00,
2013-07-02 09:58:00,84.2,38.7,30.06,East,90,2.2,3.5,20,0.00,,,0.00,,2013-07-02 07:58:00,
2013-07-02 10:03:00,84.7,39.2,30.06,North,0,1.7,2.2,20,0.00,,,0.00,,2013-07-02 08:03:00,
2013-07-02 10:08:00,84.2,38.7,30.06,NW,315,1.3,2.6,20,0.00,,,0.00,,2013-07-02 08:08:00,
2013-07-02 10:13:00,84.9,39.2,30.06,East,90,2.6,2.6,20,0.00,,,0.00,,2013-07-02 08:13:00,
2013-07-02 10:18:00,86.0,40.1,30.06,NE,45,1.7,1.7,20,0.00,,,0.00,,2013-07-02 08:18:00,
2013-07-02 10:23:00,86.0,40.1,30.06,NNW,337,2.2,2.6,20,0.00,,,0.00,,2013-07-02 08:23:00,
2013-07-02 10:28:00,85.1,39.4,30.06,West,270,2.2,3.5,20,0.00,,,0.00,,2013-07-02 08:28:00,
2013-07-02 10:33:00,86.2,40.3,30.06,NE,45,1.7,3.5,20,0.00,,,0.00,,2013-07-02 08:33:00,
2013-07-02 10:38:00,86.2,40.3,30.06,NW,315,2.6,3.5,20,0.00,,,0.00,,2013-07-02 08:38:00,
2013-07-02 10:43:00,87.3,41.2,30.06,NE,45,2.2,2.6,20,0.00,,,0.00,,2013-07-02 08:43:00,
2013-07-02 10:48:00,88.5,42.3,30.06,SE,135,1.3,1.3,20,0.00,,,0.00,,2013-07-02 08:48:00,
2013-07-02 10:53:00,88.9,42.4,30.06,North,0,0.4,4.0,20,0.00,,,0.00,,2013-07-02 08:53:00,
2013-07-02 10:58:00,89.2,42.8,30.06,East,90,3.5,3.5,20,0.00,,,0.00,,2013-07-02 08:58:00,
2013-07-02 11:03:00,86.9,40.8,30.06,West,270,4.4,4.4,20,0.00,,,0.00,,2013-07-02 09:03:00,
2013-07-02 11:08:00,86.4,40.5,30.06,NW,315,4.9,5.8,20,0.00,,,0.00,,2013-07-02 09:08:00,
2013-07-02 11:13:00,87.4,41.4,30.06,North,0,1.7,3.5,20,0.00,,,0.00,,2013-07-02 09:13:00,
2013-07-02 11:23:00,87.3,41.2,30.06,NW,315,3.5,4.4,20,0.00,,,0.00,,2013-07-02 09:23:00,
2013-07-02 11:28:00,88.2,41.9,30.06,East,90,2.2,3.1,20,0.00,,,0.00,,2013-07-02 09:28:00,
2013-07-02 11:33:00,89.2,42.8,30.06,East,90,2.2,2.2,20,0.00,,,0.00,,2013-07-02 09:33:00,
2013-07-02 11:38:00,89.6,43.2,30.06,North,0,3.1,3.1,20,0.00,,,0.00,,2013-07-02 09:38:00,
2013-07-02 11:43:00,89.6,43.2,30.06,North,0,0.8,0.8,20,0.00,,,0.00,,2013-07-02 09:43:00,
2013-07-02 11:48:00,88.7,42.4,30.06,NW,315,3.1,8.5,20,0.00,,,0.00,,2013-07-02 09:48:00,
2013-07-02 11:53:00,88.0,41.7,30.06,NW,315,4.9,6.2,20,0.00,,,0.00,,2013-07-02 09:53:00,
2013-07-02 11:58:00,88.2,41.9,30.06,NW,315,4.4,4.4,20,0.00,,,0.00,,2013-07-02 09:58:00,
2013-07-02 12:03:00,90.0,43.3,30.06,NW,315,1.3,2.2,20,0.00,,,0.00,,2013-07-02 10:03:00,
2013-07-02 12:08:00,90.1,43.5,30.06,NW,315,2.2,2.2,20,0.00,,,0.00,,2013-07-02 10:08:00,
2013-07-02 12:13:00,89.8,43.3,30.06,West,270,2.6,3.5,20,0.00,,,0.00,,2013-07-02 10:13:00,
2013-07-02 12:18:00,88.7,42.4,30.06,West,270,3.5,3.5,20,0.00,,,0.00,,2013-07-02 10:18:00,
2013-07-02 12:23:00,88.5,42.3,30.06,South,180,2.2,2.6,20,0.00,,,0.00,,2013-07-02 10:23:00,
2013-07-02 12:28:00,89.1,42.6,30.03,WNW,292,6.7,6.7,20,0.00,,,0.00,,2013-07-02 10:28:00,
2013-07-02 12:33:00,89.4,43.0,30.03,SSE,157,1.3,2.6,20,0.00,,,0.00,,2013-07-02 10:33:00,
2013-07-02 12:38:00,92.3,45.3,30.03,East,90,1.7,1.7,20,0.00,,,0.00,,2013-07-02 10:38:00,
2013-07-02 12:43:00,89.8,43.3,30.03,NW,315,6.2,8.9,20,0.00,,,0.00,,2013-07-02 10:43:00,
2013-07-02 12:48:00,89.8,43.3,30.03,NW,315,4.9,8.0,20,0.00,,,0.00,,2013-07-02 10:48:00,
2013-07-02 12:53:00,89.8,43.3,30.03,West,270,1.3,4.9,20,0.00,,,0.00,,2013-07-02 10:53:00,
2013-07-02 12:58:00,92.5,45.5,30.03,NE,45,2.6,2.6,20,0.00,,,0.00,,2013-07-02 10:58:00,
2013-07-02 13:03:00,91.6,44.8,30.03,NW,315,4.4,7.6,20,0.00,,,0.00,,2013-07-02 11:03:00,
2013-07-02 13:08:00,91.4,44.6,30.03,East,90,3.5,3.5,20,0.00,,,0.00,,2013-07-02 11:08:00,
2013-07-02 13:13:00,93.9,46.6,30.03,NW,315,3.1,4.4,20,0.00,,,0.00,,2013-07-02 11:13:00,
2013-07-02 13:18:00,93.4,46.2,30.03,NW,315,3.1,4.4,20,0.00,,,0.00,,2013-07-02 11:18:00,
2013-07-02 13:23:00,91.2,44.4,30.03,SW,225,4.9,4.9,20,0.00,,,0.00,,2013-07-02 11:23:00,
2013-07-02 13:28:00,93.4,46.2,30.03,East,90,1.7,5.3,20,0.00,,,0.00,,2013-07-02 11:28:00,
2013-07-02 13:33:00,91.8,45.0,30.03,NW,315,6.7,6.7,20,0.00,,,0.00,,2013-07-02 11:33:00,
2013-07-02 13:38:00,91.0,44.2,30.03,NW,315,5.3,5.3,20,0.00,,,0.00,,2013-07-02 11:38:00,
2013-07-02 13:43:00,92.5,45.5,30.03,North,0,3.1,4.4,20,0.00,,,0.00,,2013-07-02 11:43:00,
2013-07-02 13:48:00,90.3,43.7,30.03,NW,315,8.5,8.9,20,0.00,,,0.00,,2013-07-02 11:48:00,
2013-07-02 13:53:00,88.7,42.4,30.03,NW,315,10.2,12.9,20,0.00,,,0.00,,2013-07-02 11:53:00,
2013-07-02 13:58:00,89.2,42.8,30.03,NW,315,11.1,13.4,20,0.00,,,0.00,,2013-07-02 11:58:00,
2013-07-02 14:03:00,88.5,42.3,30.03,NW,315,7.6,9.3,20,0.00,,,0.00,,2013-07-02 12:03:00,
2013-07-02 14:08:00,89.6,43.2,30.03,NW,315,8.5,11.1,20,0.00,,,0.00,,2013-07-02 12:08:00,
2013-07-02 14:13:00,89.2,42.8,30.03,NW,315,7.6,8.9,20,0.00,,,0.00,,2013-07-02 12:13:00,
2013-07-02 14:18:00,88.9,42.4,30.03,West,270,11.6,13.4,20,0.00,,,0.00,,2013-07-02 12:18:00,
2013-07-02 14:23:00,89.1,42.6,30.03,NW,315,4.9,6.2,20,0.00,,,0.00,,2013-07-02 12:23:00,
2013-07-02 14:28:00,89.1,42.6,30.03,NW,315,7.6,8.0,20,0.00,,,0.00,,2013-07-02 12:28:00,
2013-07-02 14:33:00,89.8,43.3,30.03,NW,315,9.8,9.8,20,0.00,,,0.00,,2013-07-02 12:33:00,
2013-07-02 14:38:00,89.2,42.8,30.03,NW,315,8.9,9.3,20,0.00,,,0.00,,2013-07-02 12:38:00,
2013-07-02 14:43:00,88.3,42.1,30.03,NW,315,10.7,15.6,20,0.00,,,0.00,,2013-07-02 12:43:00,
2013-07-02 14:48:00,88.2,41.9,30.03,NW,315,8.9,8.9,20,0.00,,,0.00,,2013-07-02 12:48:00,
2013-07-02 14:53:00,88.9,42.4,30.03,NW,315,9.8,12.5,20,0.00,,,0.00,,2013-07-02 12:53:00,
2013-07-02 14:58:00,89.1,42.6,30.03,NW,315,9.3,13.4,20,0.00,,,0.00,,2013-07-02 12:58:00,
2013-07-02 15:03:00,89.1,42.6,30.03,NW,315,9.3,11.6,20,0.00,,,0.00,,2013-07-02 13:03:00,
2013-07-02 15:08:00,89.1,42.6,30.03,NW,315,9.3,11.1,20,0.00,,,0.00,,2013-07-02 13:08:00,
2013-07-02 15:13:00,88.9,42.4,30.03,NW,315,8.0,8.5,20,0.00,,,0.00,,2013-07-02 13:13:00,
2013-07-02 15:18:00,89.4,43.0,30.03,NW,315,8.5,9.8,20,0.00,,,0.00,,2013-07-02 13:18:00,
2013-07-02 15:23:00,89.4,43.0,30.03,North,0,8.5,10.7,20,0.00,,,0.00,,2013-07-02 13:23:00,
2013-07-02 15:28:00,88.2,41.9,30.03,NW,315,9.3,12.9,20,0.00,,,0.00,,2013-07-02 13:28:00,
2013-07-02 15:33:00,89.1,42.6,30.00,NW,315,9.8,11.1,20,0.00,,,0.00,,2013-07-02 13:33:00,
2013-07-02 15:38:00,89.2,42.8,30.00,NW,315,8.5,11.1,20,0.00,,,0.00,,2013-07-02 13:38:00,
2013-07-02 15:43:00,89.6,43.2,30.00,NW,315,9.8,12.0,20,0.00,,,0.00,,2013-07-02 13:43:00,
2013-07-02 15:48:00,89.4,43.0,30.03,NW,315,9.3,9.3,20,0.00,,,0.00,,2013-07-02 13:48:00,
2013-07-02 15:53:00,89.1,42.6,30.03,NW,315,9.8,9.8,20,0.00,,,0.00,,2013-07-02 13:53:00,
2013-07-02 15:58:00,88.9,42.4,30.03,NW,315,8.9,10.2,20,0.00,,,0.00,,2013-07-02 13:58:00,
2013-07-02 16:03:00,88.5,42.3,30.03,NW,315,9.3,12.0,20,0.00,,,0.00,,2013-07-02 14:03:00,
2013-07-02 16:08:00,88.7,42.4,30.00,NW,315,9.8,12.0,20,0.00,,,0.00,,2013-07-02 14:08:00,
2013-07-02 16:13:00,88.9,42.4,30.00,NW,315,9.8,9.8,20,0.00,,,0.00,,2013-07-02 14:13:00,
2013-07-02 16:18:00,88.3,42.1,30.00,West,270,5.8,8.5,20,0.00,,,0.00,,2013-07-02 14:18:00,
2013-07-02 16:23:00,87.6,41.5,30.00,West,270,10.2,13.4,20,0.00,,,0.00,,2013-07-02 14:23:00,
2013-07-02 16:28:00,88.9,42.4,30.00,West,270,8.0,9.8,20,0.00,,,0.00,,2013-07-02 14:28:00,
2013-07-02 16:33:00,88.2,41.9,30.00,NW,315,8.0,9.3,20,0.00,,,0.00,,2013-07-02 14:33:00,
2013-07-02 16:38:00,88.2,41.9,30.00,WNW,292,9.3,9.8,20,0.00,,,0.00,,2013-07-02 14:38:00,
2013-07-02 16:43:00,88.3,42.1,30.00,NW,315,8.9,10.2,20,0.00,,,0.00,,2013-07-02 14:43:00,
2013-07-02 16:48:00,88.7,42.4,30.00,NW,315,8.0,8.5,20,0.00,,,0.00,,2013-07-02 14:48:00,
2013-07-02 16:53:00,88.0,41.7,30.00,NW,315,10.7,10.7,20,0.00,,,0.00,,2013-07-02 14:53:00,
2013-07-02 16:58:00,88.0,41.7,30.00,West,270,5.3,9.8,20,0.00,,,0.00,,2013-07-02 14:58:00,
2013-07-02 17:03:00,89.1,42.6,30.00,NW,315,8.0,9.3,20,0.00,,,0.00,,2013-07-02 15:03:00,
2013-07-02 17:08:00,90.0,43.3,30.00,West,270,8.9,9.8,20,0.00,,,0.00,,2013-07-02 15:08:00,
2013-07-02 17:13:00,89.2,42.8,30.00,West,270,7.1,10.2,20,0.00,,,0.00,,2013-07-02 15:13:00,
2013-07-02 17:18:00,88.9,42.4,30.00,WNW,292,7.6,8.5,20,0.00,,,0.00,,2013-07-02 15:18:00,
2013-07-02 17:23:00,88.9,42.4,30.00,NW,315,8.5,10.2,20,0.00,,,0.00,,2013-07-02 15:23:00,
2013-07-02 17:28:00,88.7,42.4,30.00,NW,315,6.7,7.6,20,0.00,,,0.00,,2013-07-02 15:28:00,
2013-07-02 17:33:00,88.7,42.4,30.00,NW,315,6.7,8.5,20,0.00,,,0.00,,2013-07-02 15:33:00,
2013-07-02 17:38:00,88.3,42.1,30.00,NW,315,6.7,6.7,20,0.00,,,0.00,,2013-07-02 15:38:00,
2013-07-02 17:43:00,88.5,42.3,30.00,NW,315,7.6,8.0,20,0.00,,,0.00,,2013-07-02 15:43:00,
2013-07-02 17:48:00,88.2,41.9,30.00,NW,315,7.6,8.5,20,0.00,,,0.00,,2013-07-02 15:48:00,
2013-07-02 17:58:00,87.8,41.7,30.00,NW,315,7.1,8.0,20,0.00,,,0.00,,2013-07-02 15:58:00,
2013-07-02 18:03:00,87.8,41.7,30.00,NW,315,8.0,11.6,20,0.00,,,0.00,,2013-07-02 16:03:00,
2013-07-02 18:08:00,86.9,40.8,30.00,NW,315,6.2,8.9,20,0.00,,,0.00,,2013-07-02 16:08:00,
2013-07-02 18:13:00,86.9,40.8,30.00,NW,315,8.5,8.5,20,0.00,,,0.00,,2013-07-02 16:13:00,
2013-07-02 18:18:00,87.6,41.5,30.00,NW,315,8.0,8.0,20,0.00,,,0.00,,2013-07-02 16:18:00,
2013-07-02 18:23:00,86.9,40.8,30.00,West,270,8.5,12.0,20,0.00,,,0.00,,2013-07-02 16:23:00,
2013-07-02 18:28:00,86.9,40.8,30.00,NW,315,8.5,8.9,20,0.00,,,0.00,,2013-07-02 16:28:00,
2013-07-02 18:33:00,86.7,40.8,30.00,NW,315,7.1,8.5,20,0.00,,,0.00,,2013-07-02 16:33:00,
2013-07-02 18:38:00,86.7,40.8,30.00,West,270,4.9,5.8,20,0.00,,,0.00,,2013-07-02 16:38:00,
2013-07-02 18:43:00,86.0,40.1,30.00,NW,315,8.9,10.2,20,0.00,,,0.00,,2013-07-02 16:43:00,
2013-07-02 18:48:00,86.0,40.1,30.00,NW,315,8.5,8.9,20,0.00,,,0.00,,2013-07-02 16:48:00,
2013-07-02 18:53:00,86.0,40.1,30.00,NW,315,5.8,10.7,20,0.00,,,0.00,,2013-07-02 16:53:00,
2013-07-02 18:58:00,85.6,39.9,30.00,NW,315,8.0,9.3,20,0.00,,,0.00,,2013-07-02 16:58:00,
2013-07-02 19:03:00,85.5,39.7,30.00,NW,315,5.8,9.8,20,0.00,,,0.00,,2013-07-02 17:03:00,
2013-07-02 19:08:00,85.6,39.9,30.00,NW,315,7.1,8.9,20,0.00,,,0.00,,2013-07-02 17:08:00,
2013-07-02 19:13:00,85.3,39.6,30.00,NW,315,8.9,8.9,20,0.00,,,0.00,,2013-07-02 17:13:00,
2013-07-02 19:18:00,84.6,39.0,30.00,NW,315,7.6,9.3,20,0.00,,,0.00,,2013-07-02 17:18:00,
2013-07-02 19:23:00,84.6,39.0,30.00,NW,315,7.6,8.5,20,0.00,,,0.00,,2013-07-02 17:23:00,
2013-07-02 19:28:00,84.4,38.8,30.00,NW,315,7.6,8.0,20,0.00,,,0.00,,2013-07-02 17:28:00,
2013-07-02 19:33:00,83.8,38.3,30.00,NW,315,8.0,10.7,20,0.00,,,0.00,,2013-07-02 17:33:00,
2013-07-02 19:38:00,83.3,37.9,30.00,West,270,8.5,10.2,20,0.00,,,0.00,,2013-07-02 17:38:00,
2013-07-02 19:43:00,83.3,37.9,30.00,NW,315,7.1,8.9,20,0.00,,,0.00,,2013-07-02 17:43:00,
2013-07-02 19:48:00,83.1,37.8,30.00,West,270,4.9,6.2,20,0.00,,,0.00,,2013-07-02 17:48:00,
2013-07-02 19:53:00,82.9,37.6,30.00,NW,315,5.3,6.2,20,0.00,,,0.00,,2013-07-02 17:53:00,
2013-07-02 19:58:00,82.4,37.2,30.00,NW,315,4.4,7.6,20,0.00,,,0.00,,2013-07-02 17:58:00,
2013-07-02 20:03:00,81.5,36.5,30.00,NW,315,6.7,6.7,20,0.00,,,0.00,,2013-07-02 18:03:00,
2013-07-02 20:08:00,81.1,36.1,30.00,West,270,6.2,8.5,20,0.00,,,0.00,,2013-07-02 18:08:00,
2013-07-02 20:13:00,80.8,35.8,30.00,NW,315,5.3,6.7,20,0.00,,,0.00,,2013-07-02 18:13:00,
2013-07-02 20:18:00,80.4,35.6,30.00,NW,315,7.1,7.6,20,0.00,,,0.00,,2013-07-02 18:18:00,
2013-07-02 20:23:00,79.7,35.1,30.00,West,270,6.2,9.3,20,0.00,,,0.00,,2013-07-02 18:23:00,
2013-07-02 20:28:00,79.5,34.9,30.00,NW,315,5.3,8.9,20,0.00,,,0.00,,2013-07-02 18:28:00,
2013-07-02 20:33:00,79.3,34.7,30.03,NW,315,5.8,5.8,20,0.00,,,0.00,,2013-07-02 18:33:00,
2013-07-02 20:38:00,79.3,34.7,30.03,NW,315,4.9,5.3,20,0.00,,,0.00,,2013-07-02 18:38:00,
2013-07-02 20:43:00,78.6,34.2,30.03,NW,315,5.3,5.3,20,0.00,,,0.00,,2013-07-02 18:43:00,
2013-07-02 20:48:00,78.6,34.2,30.03,NW,315,4.4,5.8,20,0.00,,,0.00,,2013-07-02 18:48:00,
2013-07-02 20:53:00,78.6,34.2,30.03,NW,315,4.0,4.4,20,0.00,,,0.00,,2013-07-02 18:53:00,
2013-07-02 20:58:00,78.6,34.2,30.03,West,270,3.5,4.4,20,0.00,,,0.00,,2013-07-02 18:58:00,
2013-07-02 21:03:00,77.4,34.3,30.03,West,270,4.4,4.9,21,0.00,,,0.00,,2013-07-02 19:03:00,
2013-07-02 21:08:00,76.8,35.1,30.00,NW,315,3.5,4.4,22,0.00,,,0.00,,2013-07-02 19:08:00,
2013-07-02 21:13:00,76.6,36.0,30.00,West,270,4.0,4.0,23,0.00,,,0.00,,2013-07-02 19:13:00,
2013-07-02 21:18:00,76.3,35.6,30.03,West,270,4.0,4.0,23,0.00,,,0.00,,2013-07-02 19:18:00,
2013-07-02 21:23:00,76.3,36.7,30.03,NW,315,2.6,4.4,24,0.00,,,0.00,,2013-07-02 19:23:00,
2013-07-02 21:28:00,76.1,37.6,30.03,NW,315,2.6,4.0,25,0.00,,,0.00,,2013-07-02 19:28:00,
2013-07-02 21:33:00,75.7,39.2,30.03,West,270,3.1,4.4,27,0.00,,,0.00,,2013-07-02 19:33:00,
2013-07-02 21:38:00,75.7,39.2,30.03,NW,315,3.1,3.1,27,0.00,,,0.00,,2013-07-02 19:38:00,
2013-07-02 21:43:00,75.4,39.9,30.03,South,180,1.3,0.0,28,0.00,,,0.00,,2013-07-02 19:43:00,
2013-07-02 21:48:00,75.0,40.5,30.03,South,180,0.8,0.0,29,0.00,,,0.00,,2013-07-02 19:48:00,
2013-07-02 21:53:00,74.8,42.1,30.03,NW,315,1.3,2.6,31,0.00,,,0.00,,2013-07-02 19:53:00,
2013-07-02 21:58:00,74.5,43.3,30.03,South,180,1.3,2.6,33,0.00,,,0.00,,2013-07-02 19:58:00,
2013-07-02 22:03:00,74.5,43.3,30.03,NW,315,0.8,0.8,33,0.00,,,0.00,,2013-07-02 20:03:00,
2013-07-02 22:08:00,73.9,44.4,30.03,South,180,1.7,3.5,35,0.00,,,0.00,,2013-07-02 20:08:00,
2013-07-02 22:13:00,73.9,44.4,30.03,West,270,1.7,1.7,35,0.00,,,0.00,,2013-07-02 20:13:00,
2013-07-02 22:18:00,73.9,44.4,30.03,West,270,1.3,2.6,35,0.00,,,0.00,,2013-07-02 20:18:00,
2013-07-02 22:23:00,73.2,46.0,30.03,South,180,0.8,2.2,38,0.00,,,0.00,,2013-07-02 20:23:00,
2013-07-02 22:28:00,73.0,46.6,30.03,West,270,1.3,2.2,39,0.00,,,0.00,,2013-07-02 20:28:00,
2013-07-02 22:33:00,72.7,46.9,30.03,South,180,0.4,2.6,40,0.00,,,0.00,,2013-07-02 20:33:00,
2013-07-02 22:38:00,72.7,46.9,30.03,South,180,1.3,2.6,40,0.00,,,0.00,,2013-07-02 20:38:00,
2013-07-02 22:43:00,72.7,46.9,30.03,West,270,0.4,0.0,40,0.00,,,0.00,,2013-07-02 20:43:00,
2013-07-02 22:48:00,72.1,47.7,30.03,WSW,247,1.3,1.7,42,0.00,,,0.00,,2013-07-02 20:48:00,
2013-07-02 22:53:00,72.1,47.7,30.03,West,270,1.7,1.7,42,0.00,,,0.00,,2013-07-02 20:53:00,
2013-07-02 22:58:00,72.1,47.7,30.06,West,270,1.7,2.2,42,0.00,,,0.00,,2013-07-02 20:58:00,
2013-07-02 23:03:00,71.8,48.0,30.06,West,270,1.7,2.2,43,0.00,,,0.00,,2013-07-02 21:03:00,
2013-07-02 23:13:00,71.6,49.1,30.03,West,270,0.8,1.7,45,0.00,,,0.00,,2013-07-02 21:13:00,
2013-07-02 23:18:00,71.6,49.1,30.03,South,180,0.8,0.8,45,0.00,,,0.00,,2013-07-02 21:18:00,
2013-07-02 23:23:00,71.2,48.7,30.03,South,180,0.0,0.4,45,0.00,,,0.00,,2013-07-02 21:23:00,
2013-07-02 23:28:00,71.1,48.6,30.06,South,180,0.4,2.2,45,0.00,,,0.00,,2013-07-02 21:28:00,
2013-07-02 23:33:00,71.1,48.6,30.06,SSW,202,1.3,1.3,45,0.00,,,0.00,,2013-07-02 21:33:00,
2013-07-02 23:38:00,70.9,48.9,30.06,West,270,0.0,0.8,46,0.00,,,0.00,,2013-07-02 21:38:00,
2013-07-02 23:43:00,70.7,48.7,30.06,West,270,0.8,0.8,46,0.00,,,0.00,,2013-07-02 21:43:00,
2013-07-02 23:48:00,70.9,48.9,30.03,South,180,0.8,2.2,46,0.00,,,0.00,,2013-07-02 21:48:00,
2013-07-02 23:53:00,70.9,48.9,30.03,South,180,1.3,2.2,46,0.00,,,0.00,,2013-07-02 21:53:00,
2013-07-02 23:58:00,70.7,49.5,30.03,West,270,0.8,0.8,47,0.00,,,0.00,,2013-07-02 21:58:00,